Time;durP1;ratioP1;P1;durP2;ratioP2;P2;SDS_P1;SDS_P2;PMS_P1;PMS_P2;Temp;Humidity;BMP_temperature;BMP_pressure;BME280_temperature;BME280_humidity;BME280_pressure;Samples;Min_cycle;Max_cycle;Signal;HPM_P1;HPM_P2
2021/03/02 00:00:51;;;;;;;;;9.60;7.60;;;;;2.55;100.00;101085.74;488363;110;358775;-53
2021/03/02 00:01:56;;;;;;;;;10.50;8.20;;;;;2.53;100.00;101081.53;489292;110;361789;-53
2021/03/02 00:03:00;;;;;;;;;8.80;6.00;;;;;2.52;100.00;101088.45;478286;113;362309;-54
2021/03/02 00:04:05;;;;;;;;;11.60;8.70;;;;;2.58;100.00;101083.03;480459;112;361378;-51
2021/03/02 00:05:12;;;;;;;;;9.80;9.20;;;;;2.58;100.00;101083.03;487464;110;362240;-53
2021/03/02 00:06:19;;;;;;;;;12.90;10.80;;;;;2.61;100.00;101077.77;487580;110;360764;-53
2021/03/02 00:07:23;;;;;;;;;22.00;21.00;;;;;2.67;100.00;101080.13;489250;110;369198;-51
2021/03/02 00:08:28;;;;;;;;;17.10;15.90;;;;;2.63;100.00;101077.71;487305;110;370586;-53
2021/03/02 00:09:32;;;;;;;;;12.50;9.80;;;;;2.62;100.00;101069.09;485881;110;363337;-52
2021/03/02 00:10:39;;;;;;;;;12.70;10.40;;;;;2.63;100.00;101065.61;482783;112;364904;-52
2021/03/02 00:11:45;;;;;;;;;22.60;19.40;;;;;2.59;100.00;101061.42;482802;110;376504;-51
2021/03/02 00:12:49;;;;;;;;;21.00;17.30;;;;;2.65;100.00;101066.39;479139;113;373696;-55
2021/03/02 00:13:54;;;;;;;;;32.90;27.80;;;;;2.68;100.00;101063.68;480696;112;379443;-53
2021/03/02 00:14:58;;;;;;;;;17.30;14.30;;;;;2.68;100.00;101062.84;479603;112;374671;-54
2021/03/02 00:16:05;;;;;;;;;18.00;15.80;;;;;2.67;100.00;101061.15;481510;110;367548;-52
2021/03/02 00:17:14;;;;;;;;;14.70;11.70;;;;;2.60;100.00;101057.95;485156;110;362381;-53
2021/03/02 00:18:20;;;;;;;;;13.30;13.10;;;;;2.66;100.00;101051.70;483824;110;362094;-52
2021/03/02 00:19:27;;;;;;;;;12.10;9.10;;;;;2.82;100.00;101046.78;485720;110;368056;-54
2021/03/02 00:20:35;;;;;;;;;14.40;11.40;;;;;2.82;100.00;101046.78;486045;110;371473;-53
2021/03/02 00:21:42;;;;;;;;;6.70;6.60;;;;;2.79;100.00;101047.71;481006;111;362814;-51
2021/03/02 00:22:52;;;;;;;;;8.20;8.20;;;;;2.68;100.00;101040.37;485018;110;363045;-59
2021/03/02 00:23:58;;;;;;;;;11.00;8.70;;;;;2.74;100.00;101034.10;488959;110;362046;-53
2021/03/02 00:25:05;;;;;;;;;14.70;10.80;;;;;2.75;100.00;101034.04;482985;110;362029;-53
2021/03/02 00:26:11;;;;;;;;;13.00;10.30;;;;;2.74;100.00;101037.53;483778;110;367792;-56
2021/03/02 00:27:16;;;;;;;;;14.70;13.80;;;;;2.71;100.00;101037.66;490605;110;369551;-55
2021/03/02 00:28:20;;;;;;;;;14.00;9.60;;;;;2.70;100.00;101040.31;494623;110;360406;-54
2021/03/02 00:29:26;;;;;;;;;11.30;7.80;;;;;2.67;100.00;101025.73;489872;110;366776;-52
2021/03/02 00:30:32;;;;;;;;;11.90;11.10;;;;;2.68;100.00;101027.42;485710;110;370016;-53
2021/03/02 00:31:37;;;;;;;;;14.10;10.20;;;;;2.63;100.00;101029.35;477944;112;368477;-53
2021/03/02 00:32:42;;;;;;;;;11.00;9.90;;;;;2.62;100.00;101019.90;486271;110;370600;-53
2021/03/02 00:33:47;;;;;;;;;16.30;12.20;;;;;2.62;100.00;101019.90;494218;110;372347;-52
2021/03/02 00:34:52;;;;;;;;;11.40;11.40;;;;;2.64;100.00;101018.09;492524;110;368579;-52
2021/03/02 00:35:56;;;;;;;;;10.70;9.30;;;;;2.67;100.00;101036.09;492016;110;360120;-53
2021/03/02 00:37:01;;;;;;;;;14.80;11.50;;;;;2.67;100.00;101015.38;489307;110;373488;-52
2021/03/02 00:38:06;;;;;;;;;14.80;13.00;;;;;2.70;100.00;101015.25;489694;110;374649;-53
2021/03/02 00:39:11;;;;;;;;;14.20;12.80;;;;;2.66;100.00;101000.73;490999;110;364584;-54
2021/03/02 00:40:16;;;;;;;;;12.60;12.10;;;;;2.75;100.00;101005.55;490304;110;373359;-54
2021/03/02 00:41:23;;;;;;;;;11.90;10.70;;;;;2.75;100.00;101005.55;468597;115;369673;-53
2021/03/02 00:42:27;;;;;;;;;11.00;11.00;;;;;2.72;100.00;101008.27;466146;116;369825;-54
2021/03/02 00:43:31;;;;;;;;;12.20;10.70;;;;;2.62;100.00;100998.34;463675;117;370593;-53
2021/03/02 00:44:36;;;;;;;;;17.70;12.70;;;;;2.62;100.00;100998.34;469525;115;364245;-52
2021/03/02 00:45:41;;;;;;;;;15.40;12.90;;;;;2.64;100.00;100993.94;473608;115;370414;-54
2021/03/02 00:46:46;;;;;;;;;16.00;12.50;;;;;2.63;100.00;100997.44;472822;115;373553;-53
2021/03/02 00:47:51;;;;;;;;;10.60;10.60;;;;;2.66;100.00;100995.56;472883;115;364738;-52
2021/03/02 00:48:55;;;;;;;;;17.70;11.80;;;;;2.61;100.00;100987.14;466951;116;373580;-53
2021/03/02 00:50:00;;;;;;;;;12.50;12.10;;;;;2.64;100.00;100986.17;468470;116;372942;-53
2021/03/02 00:51:05;;;;;;;;;16.30;13.30;;;;;2.65;100.00;100982.67;468533;114;376753;-54
2021/03/02 00:52:10;;;;;;;;;14.50;11.80;;;;;2.61;100.00;100984.55;469141;114;375361;-52
2021/03/02 00:53:14;;;;;;;;;12.20;8.60;;;;;2.61;100.00;100984.55;471172;114;370177;-54
2021/03/02 00:54:19;;;;;;;;;9.00;8.60;;;;;2.64;100.00;100989.60;466407;115;363601;-52
2021/03/02 00:55:23;;;;;;;;;16.40;12.90;;;;;2.65;100.00;100985.27;469010;115;364497;-52
2021/03/02 00:56:30;;;;;;;;;15.60;11.50;;;;;2.64;100.00;100984.42;456874;119;371738;-53
2021/03/02 00:57:34;;;;;;;;;14.60;11.70;;;;;2.59;100.00;100977.71;456009;118;371271;-54
2021/03/02 00:58:40;;;;;;;;;11.80;10.80;;;;;2.63;100.00;100977.56;454937;118;365517;-54
2021/03/02 00:59:44;;;;;;;;;16.10;12.70;;;;;2.63;100.00;100977.56;459875;118;366682;-53
2021/03/02 01:00:49;;;;;;;;;21.10;17.30;;;;;2.58;100.00;100973.44;463696;116;367207;-53
2021/03/02 01:01:54;;;;;;;;;16.30;14.90;;;;;2.61;100.00;100965.58;466133;116;372180;-52
2021/03/02 01:02:59;;;;;;;;;10.70;8.00;;;;;2.61;100.00;100965.58;473389;114;371432;-54
2021/03/02 01:04:05;;;;;;;;;15.40;11.80;;;;;2.52;100.00;100969.35;472504;114;373464;-53
2021/03/02 01:05:11;;;;;;;;;17.50;13.30;;;;;2.46;100.00;100967.01;477014;114;372667;-52
2021/03/02 01:06:17;;;;;;;;;47.40;41.60;;;;;2.50;100.00;100965.98;477335;114;383796;-52
2021/03/02 01:07:21;;;;;;;;;30.60;26.50;;;;;2.48;100.00;100959.18;472907;114;384219;-55
2021/03/02 01:08:26;;;;;;;;;15.00;14.40;;;;;2.47;100.00;100970.44;475308;114;376884;-53
2021/03/02 01:09:30;;;;;;;;;15.50;14.00;;;;;2.53;100.00;100959.84;468486;114;375239;-52
2021/03/02 01:10:36;;;;;;;;;15.30;15.00;;;;;2.27;100.00;100932.37;469885;115;376789;-53
2021/03/02 01:11:42;;;;;;;;;14.00;12.40;;;;;2.43;100.00;100961.95;456875;119;373158;-53
2021/03/02 01:12:47;;;;;;;;;2.80;1.50;;;;;2.38;100.00;100954.34;457385;118;368021;-54
2021/03/02 01:13:51;;;;;;;;;12.40;9.80;;;;;2.28;100.00;100954.77;451913;119;366693;-52
2021/03/02 01:14:56;;;;;;;;;15.20;12.20;;;;;2.24;100.00;100950.61;454844;119;372245;-53
2021/03/02 01:16:00;;;;;;;;;14.70;11.00;;;;;2.24;100.00;100950.61;457072;119;365727;-53
2021/03/02 01:17:05;;;;;;;;;12.20;12.20;;;;;2.26;100.00;100943.63;455148;118;373748;-53
2021/03/02 01:18:10;;;;;;;;;12.60;11.00;;;;;2.20;100.00;100933.48;457940;118;374633;-53
2021/03/02 01:19:15;;;;;;;;;8.70;7.90;;;;;2.19;100.00;100936.98;462259;118;371399;-54
2021/03/02 01:20:20;;;;;;;;;14.10;9.00;;;;;2.19;100.00;100924.88;452346;119;372532;-50
2021/03/02 01:21:24;;;;;;;;;7.00;3.50;;;;;2.14;100.00;100932.83;452972;119;371034;-53
2021/03/02 01:22:30;;;;;;;;;11.40;9.10;;;;;2.14;100.00;100932.83;476085;114;372635;-55
2021/03/02 01:23:34;;;;;;;;;8.50;5.50;;;;;2.17;100.00;100926.69;473354;114;365393;-54
2021/03/02 01:24:39;;;;;;;;;15.90;13.10;;;;;2.11;100.00;100929.52;473985;114;368710;-54
2021/03/02 01:25:43;;;;;;;;;10.50;7.90;;;;;2.11;100.00;100922.60;472261;114;368352;-54
2021/03/02 01:26:49;;;;;;;;;15.50;13.30;;;;;2.12;100.00;100915.68;476572;114;376299;-52
2021/03/02 01:27:54;;;;;;;;;14.80;11.50;;;;;2.12;100.00;100915.68;466883;115;369213;-53
2021/03/02 01:28:58;;;;;;;;;14.90;11.50;;;;;2.09;100.00;100905.45;469998;115;370003;-52
2021/03/02 01:30:04;;;;;;;;;9.60;6.50;;;;;2.02;100.00;100906.59;473150;115;372032;-54
2021/03/02 01:31:09;;;;;;;;;13.80;11.30;;;;;2.03;100.00;100913.45;484395;110;374639;-51
2021/03/02 01:32:14;;;;;;;;;12.20;12.00;;;;;2.03;100.00;100914.30;487789;110;370254;-53
2021/03/02 01:33:20;;;;;;;;;12.30;10.40;;;;;2.01;100.00;100917.84;489507;110;374819;-54
2021/03/02 01:34:24;;;;;;;;;13.50;13.10;;;;;2.02;100.00;100912.61;488378;110;367905;-54
2021/03/02 01:35:29;;;;;;;;;17.70;12.50;;;;;2.06;100.00;100913.34;488156;110;379922;-54
2021/03/02 01:36:36;;;;;;;;;13.20;8.80;;;;;2.06;100.00;100909.00;479439;111;368380;-54
2021/03/02 01:37:40;;;;;;;;;5.80;4.00;;;;;2.00;100.00;100904.07;477884;110;373090;-52
2021/03/02 01:38:45;;;;;;;;;17.20;15.20;;;;;2.00;100.00;100904.07;487236;110;381088;-53
2021/03/02 01:39:50;;;;;;;;;10.50;7.90;;;;;2.01;100.00;100890.23;491196;110;375701;-52
2021/03/02 01:40:54;;;;;;;;;13.20;11.30;;;;;2.02;100.00;100891.08;485901;110;370445;-52
2021/03/02 01:42:01;;;;;;;;;14.60;10.80;;;;;2.02;100.00;100891.08;472524;113;378610;-53
2021/03/02 01:43:06;;;;;;;;;11.00;9.00;;;;;2.02;100.00;100885.91;473651;113;374416;-52
2021/03/02 01:44:10;;;;;;;;;12.90;10.80;;;;;2.04;100.00;100892.70;475272;113;376009;-52
2021/03/02 01:45:16;;;;;;;;;14.10;11.60;;;;;2.01;100.00;100890.23;473060;113;369364;-53
2021/03/02 01:46:23;;;;;;;;;14.70;12.20;;;;;2.02;100.00;100889.33;462653;117;378180;-54
2021/03/02 01:47:27;;;;;;;;;16.40;11.50;;;;;2.02;100.00;100889.33;464258;116;378607;-54
2021/03/02 01:48:33;;;;;;;;;24.20;20.30;;;;;1.99;100.00;100885.98;467720;115;381211;-53
2021/03/02 01:49:37;;;;;;;;;29.00;26.70;;;;;1.98;100.00;100894.66;462408;117;383162;-52
2021/03/02 01:50:44;;;;;;;;;29.80;27.40;;;;;1.97;100.00;100882.62;442001;123;383041;-52
2021/03/02 01:51:49;;;;;;;;;21.50;18.60;;;;;1.98;100.00;100881.72;441502;123;381308;-53
2021/03/02 01:52:53;;;;;;;;;17.70;13.20;;;;;1.96;100.00;100888.70;445053;122;378112;-53
2021/03/02 01:53:58;;;;;;;;;11.10;10.50;;;;;1.92;100.00;100877.63;438389;123;364674;-53
2021/03/02 01:55:04;;;;;;;;;38.80;31.10;;;;;1.92;100.00;100877.63;444625;120;386971;-56
2021/03/02 01:56:08;;;;;;;;;92.10;69.80;;;;;2.00;100.00;100885.96;444371;122;390374;-53
2021/03/02 01:57:13;;;;;;;;;38.30;31.80;;;;;1.99;100.00;100883.41;444278;122;381981;-52
2021/03/02 01:58:17;;;;;;;;;31.80;25.70;;;;;1.95;100.00;100880.09;445410;120;383382;-54
2021/03/02 01:59:22;;;;;;;;;17.70;16.80;;;;;1.95;100.00;100874.92;437726;123;382224;-54
2021/03/02 02:00:28;;;;;;;;;9.70;9.00;;;;;1.97;100.00;100874.86;446600;120;374073;-53
2021/03/02 02:01:33;;;;;;;;;19.20;13.50;;;;;2.01;100.00;100881.63;442864;123;380070;-52
2021/03/02 02:02:39;;;;;;;;;9.40;8.50;;;;;1.98;100.00;100882.56;455893;118;374194;-53
2021/03/02 02:03:46;;;;;;;;;11.70;11.70;;;;;1.99;100.00;100875.64;455696;118;377878;-54
2021/03/02 02:04:53;;;;;;;;;17.00;15.50;;;;;1.98;100.00;100877.39;455050;118;379790;-53
2021/03/02 02:06:00;;;;;;;;;15.30;12.10;;;;;1.94;100.00;100875.83;468304;115;380878;-52
2021/03/02 02:07:07;;;;;;;;;27.20;26.50;;;;;1.89;100.00;100877.75;464857;116;384746;-52
2021/03/02 02:08:13;;;;;;;;;23.20;22.10;;;;;1.89;100.00;100869.15;461517;117;377972;-53
2021/03/02 02:09:24;;;;;;;;;28.00;27.10;;;;;1.89;100.00;100869.15;465737;115;383966;-53
2021/03/02 02:10:31;;;;;;;;;20.80;17.10;;;;;1.83;100.00;100865.91;489424;109;382603;-53
2021/03/02 02:11:40;;;;;;;;;19.00;15.20;;;;;1.83;100.00;100854.72;490649;110;381492;-51
2021/03/02 02:12:47;;;;;;;;;19.40;18.00;;;;;1.89;100.00;100869.15;486957;110;381701;-55
2021/03/02 02:13:55;;;;;;;;;15.50;11.90;;;;;1.91;100.00;100864.76;492689;110;377422;-53
2021/03/02 02:15:01;;;;;;;;;27.20;24.70;;;;;1.87;100.00;100860.61;488899;110;383450;-53
2021/03/02 02:16:09;;;;;;;;;19.60;16.60;;;;;1.82;100.00;100868.55;482925;112;380636;-55
2021/03/02 02:17:18;;;;;;;;;15.70;15.40;;;;;1.82;100.00;100868.55;482214;111;380371;-52
2021/03/02 02:18:24;;;;;;;;;17.90;15.90;;;;;1.78;100.00;100862.62;482755;111;376339;-52
2021/03/02 02:19:37;;;;;;;;;14.80;14.80;;;;;1.82;100.00;100863.38;480693;112;381138;-55
2021/03/02 02:20:46;;;;;;;;;16.50;12.00;;;;;1.82;100.00;100856.45;476612;112;371467;-55
2021/03/02 02:21:58;;;;;;;;;15.40;11.60;;;;;1.82;100.00;100856.45;486283;111;378834;-53
2021/03/02 02:23:08;;;;;;;;;18.10;16.90;;;;;1.91;100.00;100857.00;487901;111;380781;-54
2021/03/02 02:24:16;;;;;;;;;27.20;24.50;;;;;1.85;100.00;100858.08;483854;111;380929;-52
2021/03/02 02:25:28;;;;;;;;;10.50;7.90;;;;;1.85;100.00;100858.08;478229;113;375262;-52
2021/03/02 02:26:43;;;;;;;;;16.60;13.90;;;;;1.79;100.00;100843.61;483450;112;381013;-51
2021/03/02 02:27:49;;;;;;;;;13.00;13.00;;;;;1.76;100.00;100846.32;486666;111;378748;-53
2021/03/02 02:28:53;;;;;;;;;17.60;16.50;;;;;1.76;100.00;100848.06;485329;111;381094;-57
2021/03/02 02:29:58;;;;;;;;;18.70;15.10;;;;;1.76;100.00;100848.06;477845;113;371095;-54
2021/03/02 02:31:03;;;;;;;;;16.90;14.00;;;;;1.75;100.00;100851.55;486699;111;380870;-52
2021/03/02 02:32:08;;;;;;;;;13.50;11.80;;;;;1.73;100.00;100854.20;484167;111;373787;-54
2021/03/02 02:33:13;;;;;;;;;14.00;12.40;;;;;1.78;100.00;100851.44;484693;111;379538;-52
2021/03/02 02:34:20;;;;;;;;;13.30;11.10;;;;;1.76;100.00;100854.08;486971;111;371978;-53
2021/03/02 02:35:24;;;;;;;;;13.90;11.80;;;;;1.71;100.00;100845.66;484383;111;368835;-51
2021/03/02 02:36:29;;;;;;;;;16.80;14.20;;;;;1.74;100.00;100836.94;486791;111;380295;-53
2021/03/02 02:37:34;;;;;;;;;13.30;10.70;;;;;1.74;100.00;100836.94;485272;111;372341;-54
2021/03/02 02:38:41;;;;;;;;;17.00;14.20;;;;;1.74;100.00;100837.78;482621;112;380495;-53
2021/03/02 02:39:45;;;;;;;;;12.30;10.60;;;;;1.79;100.00;100837.60;488718;111;379008;-55
2021/03/02 02:40:50;;;;;;;;;6.80;6.80;;;;;1.78;100.00;100835.92;488410;110;372661;-52
2021/03/02 02:41:55;;;;;;;;;14.40;11.00;;;;;1.70;100.00;100832.79;491662;110;378136;-52
2021/03/02 02:42:59;;;;;;;;;12.10;11.20;;;;;1.71;100.00;100831.89;489040;110;379195;-52
2021/03/02 02:44:05;;;;;;;;;14.20;12.00;;;;;1.68;100.00;100834.59;488767;110;373253;-51
2021/03/02 02:45:11;;;;;;;;;10.70;8.00;;;;;1.68;100.00;100834.59;490216;110;375030;-53
2021/03/02 02:46:17;;;;;;;;;11.80;10.10;;;;;1.79;100.00;100824.67;487326;110;373785;-50
2021/03/02 02:47:22;;;;;;;;;22.40;20.00;;;;;1.73;100.00;100806.81;479611;112;378454;-52
2021/03/02 02:48:27;;;;;;;;;17.90;15.60;;;;;1.75;100.00;100815.35;491132;110;374818;-52
2021/03/02 02:49:32;;;;;;;;;12.70;12.00;;;;;1.75;100.00;100816.19;486251;110;372912;-53
2021/03/02 02:50:37;;;;;;;;;8.80;6.00;;;;;1.76;100.00;100814.45;480408;113;375275;-54
2021/03/02 02:51:42;;;;;;;;;16.30;13.90;;;;;1.71;100.00;100808.62;485945;112;380813;-53
2021/03/02 02:52:47;;;;;;;;;14.90;14.90;;;;;1.72;100.00;100807.72;487931;110;380348;-52
2021/03/02 02:53:51;;;;;;;;;19.10;16.10;;;;;1.72;100.00;100807.72;480543;112;382122;-56
2021/03/02 02:54:56;;;;;;;;;17.20;15.00;;;;;1.65;100.00;100799.36;479468;113;375607;-56
2021/03/02 02:56:02;;;;;;;;;15.00;12.70;;;;;1.60;100.00;100803.84;486449;111;377877;-56
2021/03/02 02:57:07;;;;;;;;;11.10;9.60;;;;;1.66;100.00;100800.20;484559;111;371841;-52
2021/03/02 02:58:11;;;;;;;;;17.50;13.20;;;;;1.65;100.00;100803.69;487963;111;379634;-53
2021/03/02 02:59:18;;;;;;;;;9.40;8.80;;;;;1.56;100.00;100801.44;486689;112;367463;-54
2021/03/02 03:00:25;;;;;;;;;26.00;20.40;;;;;1.67;100.00;100804.47;481648;110;379673;-52
2021/03/02 03:01:31;;;;;;;;;11.70;10.90;;;;;1.63;100.00;100800.33;488734;110;374833;-53
2021/03/02 03:02:36;;;;;;;;;22.00;17.60;;;;;1.59;100.00;100802.16;484730;111;382739;-52
2021/03/02 03:03:43;;;;;;;;;14.00;11.00;;;;;1.59;100.00;100807.33;486837;110;369702;-54
2021/03/02 03:04:49;;;;;;;;;29.70;24.00;;;;;1.61;100.00;100812.47;489962;110;383967;-52
2021/03/02 03:05:55;;;;;;;;;22.20;17.30;;;;;1.58;100.00;100815.14;485503;111;376529;-53
2021/03/02 03:07:00;;;;;;;;;21.70;14.90;;;;;1.61;100.00;100807.30;488745;110;380684;-54
2021/03/02 03:08:07;;;;;;;;;18.20;15.70;;;;;1.55;100.00;100808.34;489643;110;381269;-54
2021/03/02 03:09:12;;;;;;;;;21.60;17.20;;;;;1.55;100.00;100807.50;489372;110;381465;-54
2021/03/02 03:10:19;;;;;;;;;18.50;14.50;;;;;1.58;100.00;100807.38;493541;109;380007;-55
2021/03/02 03:11:25;;;;;;;;;17.90;14.40;;;;;1.62;100.00;100816.73;486650;109;380053;-54
2021/03/02 03:12:30;;;;;;;;;11.00;10.90;;;;;1.62;100.00;100802.06;488375;111;377074;-55
2021/03/02 03:13:36;;;;;;;;;19.00;16.90;;;;;1.61;100.00;100800.39;485144;111;382195;-54
2021/03/02 03:14:44;;;;;;;;;18.50;14.50;;;;;1.68;100.00;100804.41;485041;111;381063;-55
2021/03/02 03:15:49;;;;;;;;;22.70;20.80;;;;;1.64;100.00;100805.44;484553;110;381516;-54
2021/03/02 03:16:54;;;;;;;;;20.80;17.90;;;;;1.68;100.00;100806.16;487443;110;381164;-54
2021/03/02 03:17:59;;;;;;;;;16.70;14.10;;;;;1.67;100.00;100801.88;492432;110;380979;-54
2021/03/02 03:19:04;;;;;;;;;20.50;17.40;;;;;1.68;100.00;100808.73;489880;109;380581;-52
2021/03/02 03:20:11;;;;;;;;;20.50;17.10;;;;;1.69;100.00;100813.01;486727;110;375182;-50
2021/03/02 03:21:15;;;;;;;;;8.20;5.90;;;;;1.69;100.00;100813.01;489157;110;369014;-52
2021/03/02 03:22:19;;;;;;;;;4.30;4.30;;;;;1.69;100.00;100807.84;488966;110;370577;-56
2021/03/02 03:23:24;;;;;;;;;18.20;14.50;;;;;1.76;100.00;100807.53;486112;111;381588;-55
2021/03/02 03:24:29;;;;;;;;;15.30;12.80;;;;;1.82;100.00;100806.48;484000;111;378397;-52
2021/03/02 03:25:34;;;;;;;;;19.60;15.10;;;;;1.82;100.00;100799.56;489951;110;381850;-54
2021/03/02 03:26:40;;;;;;;;;17.10;15.70;;;;;1.85;100.00;100810.69;483320;112;380303;-53
2021/03/02 03:27:47;;;;;;;;;18.10;15.30;;;;;1.81;100.00;100810.81;484842;111;380569;-53
2021/03/02 03:28:53;;;;;;;;;16.30;14.10;;;;;1.78;100.00;100810.90;489324;110;380273;-53
2021/03/02 03:29:57;;;;;;;;;16.20;13.70;;;;;1.77;100.00;100816.13;489019;110;380738;-53
2021/03/02 03:31:02;;;;;;;;;20.30;14.10;;;;;1.79;100.00;100810.00;486828;110;375938;-54
2021/03/02 03:32:07;;;;;;;;;22.80;17.50;;;;;1.84;100.00;100812.43;486813;110;381756;-52
2021/03/02 03:33:12;;;;;;;;;16.50;14.20;;;;;1.76;100.00;100809.28;487498;111;372355;-53
2021/03/02 03:34:17;;;;;;;;;13.60;12.20;;;;;1.77;100.00;100816.13;488565;110;375097;-53
2021/03/02 03:35:22;;;;;;;;;16.00;12.50;;;;;1.81;100.00;100818.56;484211;112;378312;-55
2021/03/02 03:36:28;;;;;;;;;17.30;13.10;;;;;1.79;100.00;100814.33;485667;110;377412;-57
2021/03/02 03:37:33;;;;;;;;;14.80;12.00;;;;;1.75;100.00;100805.85;488986;110;370781;-51
2021/03/02 03:38:37;;;;;;;;;18.00;11.40;;;;;1.70;100.00;100805.19;489061;110;372584;-52
2021/03/02 03:39:42;;;;;;;;;13.00;9.40;;;;;1.76;100.00;100807.53;485550;110;369278;-54
2021/03/02 03:40:48;;;;;;;;;17.90;16.10;;;;;1.80;100.00;100801.37;490182;110;382261;-54
2021/03/02 03:41:53;;;;;;;;;13.90;11.90;;;;;1.73;100.00;100806.81;490210;110;377609;-54
2021/03/02 03:42:57;;;;;;;;;15.10;12.60;;;;;1.63;100.00;100798.58;491675;110;377245;-52
2021/03/02 03:44:02;;;;;;;;;12.00;9.80;;;;;1.66;100.00;100795.03;487619;110;367618;-53
2021/03/02 03:45:08;;;;;;;;;16.10;13.60;;;;;1.62;100.00;100798.64;483087;111;378828;-54
2021/03/02 03:46:15;;;;;;;;;21.70;17.20;;;;;1.63;100.00;100796.00;470535;113;380517;-55
2021/03/02 03:47:20;;;;;;;;;21.90;20.60;;;;;1.65;100.00;100798.52;473932;114;383067;-52
2021/03/02 03:48:25;;;;;;;;;14.70;12.80;;;;;1.55;100.00;100789.41;471780;113;369157;-54
2021/03/02 03:49:29;;;;;;;;;24.90;18.30;;;;;1.67;100.00;100800.14;469705;114;375786;-51
2021/03/02 03:50:35;;;;;;;;;13.00;7.40;;;;;1.69;100.00;100787.16;470362;115;370165;-53
2021/03/02 03:51:39;;;;;;;;;10.20;6.70;;;;;1.69;100.00;100787.16;470798;113;374929;-53
2021/03/02 03:52:44;;;;;;;;;20.30;13.90;;;;;1.68;100.00;100791.48;472884;114;380317;-50
2021/03/02 03:53:49;;;;;;;;;21.10;17.40;;;;;1.56;100.00;100785.92;473381;114;377730;-53
2021/03/02 03:54:54;;;;;;;;;22.80;17.60;;;;;1.51;100.00;100794.70;470723;114;377662;-55
2021/03/02 03:55:59;;;;;;;;;20.90;17.10;;;;;1.47;100.00;100789.71;470724;113;372151;-55
2021/03/02 03:57:04;;;;;;;;;18.80;17.30;;;;;1.58;100.00;100791.88;473736;114;382776;-55
2021/03/02 03:58:09;;;;;;;;;17.70;16.60;;;;;1.65;100.00;100781.27;471208;113;381402;-53
2021/03/02 03:59:14;;;;;;;;;20.70;18.20;;;;;1.65;100.00;100781.27;472825;114;379537;-53
2021/03/02 04:00:20;;;;;;;;;19.10;16.70;;;;;1.58;100.00;100787.55;471911;113;379484;-55
2021/03/02 04:01:25;;;;;;;;;19.00;16.40;;;;;1.60;100.00;100784.90;471261;114;379838;-53
2021/03/02 04:02:30;;;;;;;;;19.40;17.80;;;;;1.66;100.00;100782.95;474178;113;381345;-54
2021/03/02 04:03:34;;;;;;;;;14.80;14.20;;;;;1.61;100.00;100781.45;469243;115;377225;-52
2021/03/02 04:04:39;;;;;;;;;24.60;21.90;;;;;1.58;100.00;100779.80;467425;113;379097;-52
2021/03/02 04:05:45;;;;;;;;;18.50;12.60;;;;;1.54;100.00;100780.81;468126;114;378684;-53
2021/03/02 04:06:50;;;;;;;;;18.30;16.50;;;;;1.51;100.00;100779.19;470489;115;381504;-54
2021/03/02 04:07:54;;;;;;;;;22.50;18.30;;;;;1.51;100.00;100779.19;472235;114;375612;-51
2021/03/02 04:08:59;;;;;;;;;28.80;24.30;;;;;1.62;100.00;100778.80;468809;114;382133;-53
2021/03/02 04:10:04;;;;;;;;;22.90;19.00;;;;;1.58;100.00;100772.03;468642;115;381618;-54
2021/03/02 04:11:09;;;;;;;;;25.70;20.90;;;;;1.61;100.00;100771.95;474314;113;374062;-52
2021/03/02 04:12:13;;;;;;;;;19.50;15.00;;;;;1.61;100.00;100771.95;480496;112;382566;-52
2021/03/02 04:13:18;;;;;;;;;20.20;18.20;;;;;1.65;100.00;100764.91;486684;110;382129;-51
2021/03/02 04:14:23;;;;;;;;;18.20;13.90;;;;;1.56;100.00;100765.24;489500;110;375950;-54
2021/03/02 04:15:28;;;;;;;;;8.90;7.10;;;;;1.53;100.00;100769.63;491355;110;364037;-55
2021/03/02 04:16:34;;;;;;;;;13.10;9.50;;;;;1.56;100.00;100768.67;486067;110;367696;-54
2021/03/02 04:17:39;;;;;;;;;23.70;16.70;;;;;1.59;100.00;100762.53;489729;110;382281;-55
2021/03/02 04:18:43;;;;;;;;;28.10;21.50;;;;;1.59;100.00;100765.97;490020;110;382046;-52
2021/03/02 04:19:48;;;;;;;;;21.80;17.10;;;;;1.50;100.00;100772.34;487823;110;375876;-55
2021/03/02 04:20:53;;;;;;;;;18.50;15.30;;;;;1.53;100.00;100764.47;485065;111;369184;-55
2021/03/02 04:21:57;;;;;;;;;21.00;16.10;;;;;1.63;100.00;100764.97;488917;110;381147;-54
2021/03/02 04:23:02;;;;;;;;;21.30;16.40;;;;;1.61;100.00;100760.77;487733;110;381183;-53
2021/03/02 04:24:08;;;;;;;;;18.90;13.70;;;;;1.55;100.00;100771.31;487034;110;381501;-53
2021/03/02 04:25:14;;;;;;;;;16.70;12.20;;;;;1.48;100.00;100757.80;486667;111;380057;-54
2021/03/02 04:26:20;;;;;;;;;23.70;19.30;;;;;1.56;100.00;100765.24;487796;110;382197;-52
2021/03/02 04:27:25;;;;;;;;;17.20;13.80;;;;;1.53;100.00;100761.88;489042;110;379253;-53
2021/03/02 04:28:29;;;;;;;;;19.40;17.60;;;;;1.61;100.00;100761.61;487917;109;378915;-55
2021/03/02 04:29:34;;;;;;;;;19.60;13.30;;;;;1.61;100.00;100761.61;489401;109;378436;-52
2021/03/02 04:30:39;;;;;;;;;15.40;13.80;;;;;1.59;100.00;100759.95;493323;109;380575;-54
2021/03/02 04:31:44;;;;;;;;;19.60;18.10;;;;;1.61;100.00;100758.18;495544;109;373582;-54
2021/03/02 04:32:49;;;;;;;;;22.70;18.10;;;;;1.61;100.00;100758.18;496119;109;382108;-51
2021/03/02 04:33:54;;;;;;;;;17.80;13.10;;;;;1.52;100.00;100764.52;483062;112;375040;-54
2021/03/02 04:34:59;;;;;;;;;16.70;14.60;;;;;1.60;100.00;100759.05;493199;109;376409;-53
2021/03/02 04:36:05;;;;;;;;;14.80;12.40;;;;;1.64;100.00;100752.89;493097;109;369025;-53
2021/03/02 04:37:09;;;;;;;;;14.30;9.60;;;;;1.54;100.00;100762.72;490693;109;376565;-54
2021/03/02 04:38:16;;;;;;;;;19.40;17.40;;;;;1.60;100.00;100751.30;493162;109;382396;-51
2021/03/02 04:39:20;;;;;;;;;16.00;13.10;;;;;1.64;100.00;100758.06;491159;110;378745;-56
2021/03/02 04:40:25;;;;;;;;;11.70;10.90;;;;;1.64;100.00;100752.89;492951;109;378638;-53
2021/03/02 04:41:30;;;;;;;;;12.10;6.90;;;;;1.65;100.00;100751.98;497325;109;370646;-55
2021/03/02 04:42:34;;;;;;;;;18.80;15.10;;;;;1.61;100.00;100748.68;493601;109;377252;-53
2021/03/02 04:43:39;;;;;;;;;23.40;17.40;;;;;1.65;100.00;100741.64;491901;109;374311;-53
2021/03/02 04:44:44;;;;;;;;;27.10;22.20;;;;;1.50;100.00;100756.83;493601;109;382743;-54
2021/03/02 04:45:48;;;;;;;;;17.90;15.70;;;;;1.61;100.00;100755.59;495704;109;373641;-51
2021/03/02 04:46:52;;;;;;;;;11.60;7.10;;;;;1.63;100.00;100741.70;493343;109;375100;-52
2021/03/02 04:47:57;;;;;;;;;16.30;13.90;;;;;1.60;100.00;100759.05;496918;109;374704;-53
2021/03/02 04:49:02;;;;;;;;;14.30;11.40;;;;;1.59;100.00;100753.04;490338;109;369281;-52
2021/03/02 04:50:10;;;;;;;;;15.00;13.00;;;;;1.58;100.00;100747.93;491115;110;364013;-53
2021/03/02 04:51:15;;;;;;;;;18.60;14.70;;;;;1.58;100.00;100740.17;491027;110;376852;-52
2021/03/02 04:52:20;;;;;;;;;13.60;10.20;;;;;1.63;100.00;100746.03;489465;110;371983;-53
2021/03/02 04:53:24;;;;;;;;;16.10;13.50;;;;;1.66;100.00;100746.75;493403;110;366104;-54
2021/03/02 04:54:29;;;;;;;;;14.80;13.50;;;;;1.63;100.00;100725.35;494896;110;374217;-55
2021/03/02 04:55:33;;;;;;;;;19.80;16.40;;;;;1.63;100.00;100725.35;495017;109;375643;-52